Terminal Aerodrome Forecast
Issued by NWS

Home | Current Version | Previous Version | Text Only | Print | Product List | Glossary On
Versions: 1 2 3 4 5 6 7 8 9 10 11 12 13 14 15 16 17
000
FTUS42 TJSJ 251138
TAFJSJ
TAF
TJSJ 251138Z 2512/2612 13004KT P6SM VCSH FEW035 SCT070 BKN090
     FM251530 VRB10KT P6SM VCSH SCT025 BKN040
     FM252300 11005KT P6SM VCSH SCT025 BKN060=

USA.gov is the U.S. government's official web portal to all federal, state and local government web resources and services.